Strona główna
METAR-TAF:

METAR-TAF

Lotnisko :

Port lotniczy Nawakszut

Nawakszut, Mauretania

Szerokość geograficzna: 18-18-36N, Długość geograficzna: 015-58-11W, wysokość: 3 m

Aktualna obserwacja pogody

Raport powstał 1 godzina i 11 minut temu, godzina 21:00 UTC
Wiatr 11 kt od północno-północny zachód
Temperatura 25°C
Wilgotność 61%
Ciśnienie 1011 hPa
Widzialność 10 km lub więcej
Brak chmur poniżej 1500 m i brak chmur cumulonimbus

METAR: GQNO 062100Z 33011KT CAVOK 25/17 Q1011 NOSIG

czas: 22:11 (22:11 UTC)

Prognoza

Raport powstał 5 godziny i 11 minut temu, godzina 17:00 UTC
Prognoza ważna od 06 godzina 18 UTC do 07 godzina 24 UTC
Wiatr 15 kt od północno-północny zachód
Widzialność: 7000 m
Przejściowo
od 07 godzina 10 UTC do 07 godzina 16 UTC
Wiatr 12 kt od wschodnio-północny wschód

TAF: GQNO 061700Z 0618/0724 33015KT 7000 NSC TEMPO 0710/0716 06012KT

Obserwacja i prognoza pogody dla ponad 4000 lotnisk (raport METAR i TAF).

Dostępne stacje oznaczono żółtymi i czerwonymi punktami na mapie.

Najedź kursorem aby zobaczyć nazwę stacji.

Kliknij aby zobaczyć obserwacje i prognozy pogody.

Aby zmienić mapę: kliknij na zielony przycisk z czarnym krzyżykiem, aby powiększyć; na zielony przycisk z myślnikiem, aby pomniejszyć; na zielone strzałki, aby przejść do map sąsiednich.


METAR-TAF: